Rencontre East, Canada
Current Conditions -  °F | °C
As of 11:00 AM on Saturday 20 Dec 2014 (Local Time) from LFVP Reporting Station
Overcast Overcast  
Wind Chill: 21°   Ceiling: 2600
Heat Index: 34°   Visibility: 6mi
Dew Point: 28°   Wind: 28mph
Humidity: 81%   Direction: 40°NE
Pressure: 30.09"   Gusts: NA
Location:  47.65°N, 55.23°W
Report Text: LFVP 201400Z 04024KT 9999 OVC026 01/M02 Q1019 NOSIG
Loading
Personal Weather Stations






























Interactive Weather Map New forecast layout! Learn more

10-Day Weather Forecast

Advertisements
Track Severe Weather on mobile